Time;durP1;ratioP1;P1;durP2;ratioP2;P2;SDS_P1;SDS_P2;PMS_P1;PMS_P2;Temp;Humidity;BMP_temperature;BMP_pressure;BME280_temperature;BME280_humidity;BME280_pressure;Samples;Min_cycle;Max_cycle;Signal;HPM_P1;HPM_P2
2020/12/29 00:00:52;;;;;;;4.35;4.05;;;15.30;54.70;;;;;;5044013;28;20017;-73
2020/12/29 00:03:20;;;;;;;3.70;3.42;;;15.00;55.50;;;;;;5033734;28;20024;-73
2020/12/29 00:05:47;;;;;;;4.78;4.38;;;14.60;56.80;;;;;;5043206;28;20112;-76
2020/12/29 00:08:14;;;;;;;4.03;3.65;;;14.50;57.00;;;;;;5053413;28;20028;-72
2020/12/29 00:10:41;;;;;;;4.75;4.35;;;14.40;57.50;;;;;;5040736;28;20033;-73
2020/12/29 00:13:09;;;;;;;4.85;2.90;;;14.40;57.10;;;;;;5034475;28;20107;-72
2020/12/29 00:15:40;;;;;;;8.98;3.53;;;14.50;56.80;;;;;;5032322;28;20030;-73
2020/12/29 00:18:07;;;;;;;3.80;3.50;;;14.40;57.80;;;;;;5043474;28;20025;-72
2020/12/29 00:20:34;;;;;;;5.75;3.65;;;14.30;58.00;;;;;;5031397;28;20514;-72
2020/12/29 00:23:00;;;;;;;5.15;4.60;;;14.30;58.20;;;;;;5049658;28;20124;-73
2020/12/29 00:25:27;;;;;;;4.15;3.75;;;14.70;56.30;;;;;;5039688;28;20380;-73
2020/12/29 00:27:53;;;;;;;4.63;3.65;;;14.60;56.20;;;;;;5041162;28;20052;-72
2020/12/29 00:30:20;;;;;;;4.32;3.42;;;14.40;57.40;;;;;;5051291;28;20113;-72
2020/12/29 00:32:46;;;;;;;5.55;3.50;;;14.50;57.40;;;;;;5045139;28;20017;-72
2020/12/29 00:35:13;;;;;;;3.75;3.42;;;14.40;58.20;;;;;;5046056;28;20103;-72
2020/12/29 00:37:39;;;;;;;5.43;4.18;;;14.40;58.20;;;;;;5043652;28;20090;-73
2020/12/29 00:40:06;;;;;;;3.90;3.60;;;14.30;58.40;;;;;;5044805;28;20434;-71
2020/12/29 00:42:33;;;;;;;3.40;3.10;;;14.30;58.50;;;;;;5044749;28;20116;-72
2020/12/29 00:45:00;;;;;;;5.45;5.00;;;14.40;58.60;;;;;;5036523;28;21898;-72
2020/12/29 00:47:26;;;;;;;6.05;4.72;;;14.40;58.40;;;;;;5056634;28;20033;-71
2020/12/29 00:49:52;;;;;;;4.70;3.80;;;14.40;58.30;;;;;;5043873;28;20366;-72
2020/12/29 00:52:19;;;;;;;4.70;4.30;;;14.40;58.20;;;;;;5052884;28;20033;-72
2020/12/29 00:54:45;;;;;;;4.55;4.15;;;14.30;58.30;;;;;;5030230;28;20039;-72
2020/12/29 00:57:11;;;;;;;4.93;4.43;;;14.20;58.70;;;;;;5030664;28;20029;-72
2020/12/29 00:59:38;;;;;;;8.55;5.55;;;14.10;58.80;;;;;;5030756;28;20025;-71
2020/12/29 01:02:04;;;;;;;16.08;10.32;;;14.00;58.90;;;;;;5046163;28;20541;-72
2020/12/29 01:04:31;;;;;;;38.58;25.23;;;13.90;59.00;;;;;;5031777;28;20033;-72
2020/12/29 01:06:57;;;;;;;27.27;16.95;;;13.90;58.40;;;;;;5044211;28;20037;-69
2020/12/29 01:09:23;;;;;;;7.60;5.88;;;13.70;58.80;;;;;;5034062;28;20040;-72
2020/12/29 01:11:51;;;;;;;6.30;5.72;;;13.60;58.30;;;;;;5034770;28;20160;-71
2020/12/29 01:14:17;;;;;;;6.45;4.80;;;13.60;58.30;;;;;;5024013;28;20033;-71
2020/12/29 01:16:46;;;;;;;4.72;4.30;;;13.50;58.40;;;;;;5034401;28;20514;-71
2020/12/29 01:19:12;;;;;;;5.13;4.72;;;13.30;58.50;;;;;;5041245;28;20100;-72
2020/12/29 01:21:39;;;;;;;5.05;4.60;;;13.20;58.70;;;;;;5049350;28;20036;-72
2020/12/29 01:24:05;;;;;;;5.22;4.78;;;13.00;59.40;;;;;;5039785;28;20079;-72
2020/12/29 01:26:32;;;;;;;5.50;5.10;;;12.90;59.10;;;;;;5030500;28;20075;-72
2020/12/29 01:28:58;;;;;;;8.20;4.70;;;12.80;60.10;;;;;;5044226;28;20036;-70
2020/12/29 01:31:30;;;;;;;7.82;5.45;;;12.60;59.30;;;;;;5039396;28;20037;-74
2020/12/29 01:33:59;;;;;;;6.53;5.43;;;12.60;60.00;;;;;;5041545;28;20030;-73
2020/12/29 01:36:27;;;;;;;14.25;6.72;;;12.50;59.50;;;;;;5034326;28;20489;-72
2020/12/29 01:38:54;;;;;;;10.77;4.72;;;12.50;59.70;;;;;;5050343;28;20030;-71
2020/12/29 01:41:21;;;;;;;4.45;4.07;;;12.50;59.70;;;;;;5031123;28;20088;-73
2020/12/29 01:43:48;;;;;;;6.78;4.35;;;12.40;59.90;;;;;;5031461;28;20029;-73
2020/12/29 01:46:15;;;;;;;6.85;4.32;;;12.30;60.10;;;;;;5049242;28;20033;-72
2020/12/29 01:48:43;;;;;;;8.23;5.18;;;12.20;60.70;;;;;;5034793;28;20081;-73
2020/12/29 01:51:10;;;;;;;7.88;4.82;;;12.10;60.30;;;;;;5040549;28;20104;-73
2020/12/29 01:53:41;;;;;;;7.15;4.97;;;12.10;60.60;;;;;;5037235;28;20032;-75
2020/12/29 01:56:10;;;;;;;8.23;5.53;;;12.00;60.80;;;;;;5047633;28;20095;-72
2020/12/29 01:58:38;;;;;;;8.63;6.07;;;11.90;60.90;;;;;;5045207;28;20044;-74
2020/12/29 02:01:05;;;;;;;10.75;6.40;;;11.80;60.90;;;;;;5037563;28;20068;-73
2020/12/29 02:03:32;;;;;;;10.48;7.68;;;11.80;60.80;;;;;;5034755;28;20147;-73
2020/12/29 02:05:59;;;;;;;8.27;4.75;;;11.70;61.40;;;;;;5046179;28;20045;-73
2020/12/29 02:08:26;;;;;;;10.50;4.70;;;11.60;61.80;;;;;;5045757;28;20028;-73
2020/12/29 02:10:55;;;;;;;8.63;4.85;;;11.60;62.30;;;;;;5048903;28;20037;-70
2020/12/29 02:13:22;;;;;;;8.15;4.57;;;11.60;62.80;;;;;;5050507;28;20029;-72
2020/12/29 02:15:48;;;;;;;7.65;4.70;;;11.70;62.70;;;;;;5047780;28;20335;-72
2020/12/29 02:18:15;;;;;;;9.25;4.95;;;11.70;61.70;;;;;;5032919;28;20109;-72
2020/12/29 02:20:42;;;;;;;10.70;6.32;;;11.80;61.70;;;;;;5037348;28;21288;-72
2020/12/29 02:23:10;;;;;;;10.60;5.57;;;11.70;61.90;;;;;;5042883;28;20083;-72
2020/12/29 02:25:37;;;;;;;9.15;6.00;;;11.70;62.10;;;;;;5035339;28;20021;-72
2020/12/29 02:28:05;;;;;;;11.70;4.70;;;11.60;62.40;;;;;;5041035;28;20033;-70
2020/12/29 02:30:32;;;;;;;10.13;5.35;;;11.60;62.30;;;;;;5046222;28;20040;-73
2020/12/29 02:32:59;;;;;;;9.98;5.15;;;11.60;63.00;;;;;;5052678;28;20342;-71
2020/12/29 02:35:26;;;;;;;9.48;5.20;;;11.50;63.40;;;;;;5044740;28;20026;-72
2020/12/29 02:37:52;;;;;;;12.15;6.07;;;11.50;63.00;;;;;;5033939;28;20020;-72
2020/12/29 02:40:18;;;;;;;11.18;5.30;;;11.50;63.30;;;;;;5044584;28;20048;-73
2020/12/29 02:42:45;;;;;;;13.85;6.65;;;11.40;62.20;;;;;;5027461;28;20156;-73
2020/12/29 02:45:11;;;;;;;9.82;5.47;;;11.40;62.00;;;;;;5035146;28;20037;-72
2020/12/29 02:47:37;;;;;;;10.32;5.63;;;11.50;62.50;;;;;;5040152;28;20355;-72
2020/12/29 02:50:07;;;;;;;8.85;5.05;;;11.50;62.20;;;;;;5041566;28;20032;-73
2020/12/29 02:52:34;;;;;;;9.57;4.65;;;11.50;62.40;;;;;;5040484;28;20033;-73
2020/12/29 02:55:00;;;;;;;14.63;5.60;;;11.40;62.30;;;;;;5048217;28;20056;-73
2020/12/29 02:57:27;;;;;;;13.35;5.05;;;11.50;62.60;;;;;;5039569;28;20029;-72
2020/12/29 02:59:53;;;;;;;11.43;4.90;;;11.40;62.70;;;;;;5042066;28;20022;-73
2020/12/29 03:02:19;;;;;;;11.07;5.38;;;11.30;62.50;;;;;;5039842;28;20057;-72
2020/12/29 03:04:46;;;;;;;9.18;4.75;;;11.20;63.30;;;;;;5034121;28;20026;-72
2020/12/29 03:07:13;;;;;;;6.80;4.55;;;11.10;63.40;;;;;;5038995;28;20104;-72
2020/12/29 03:09:39;;;;;;;7.22;4.50;;;11.10;63.10;;;;;;5035855;28;20026;-72
2020/12/29 03:12:06;;;;;;;10.75;5.28;;;11.00;63.80;;;;;;5027037;28;20026;-73
2020/12/29 03:14:33;;;;;;;10.18;5.65;;;11.00;63.20;;;;;;5047861;28;20028;-72
2020/12/29 03:17:01;;;;;;;11.85;5.25;;;11.10;63.70;;;;;;5040784;28;20312;-71
2020/12/29 03:19:27;;;;;;;15.35;5.47;;;11.10;63.70;;;;;;5040920;28;20026;-71
2020/12/29 03:21:54;;;;;;;17.75;5.43;;;11.10;64.10;;;;;;5039237;28;20296;-72
2020/12/29 03:24:20;;;;;;;15.27;6.13;;;11.10;64.10;;;;;;5039457;28;20037;-72
2020/12/29 03:26:47;;;;;;;14.05;6.20;;;11.10;64.40;;;;;;5036419;28;20454;-72
2020/12/29 03:29:13;;;;;;;15.63;5.72;;;11.00;64.50;;;;;;5047594;28;20032;-73
2020/12/29 03:31:43;;;;;;;13.60;4.95;;;11.10;65.00;;;;;;5039878;28;20026;-72
2020/12/29 03:34:15;;;;;;;13.38;5.10;;;11.00;64.50;;;;;;5049275;28;20521;-71
2020/12/29 03:36:41;;;;;;;20.08;6.00;;;10.90;64.90;;;;;;5048121;28;20378;-72
2020/12/29 03:39:08;;;;;;;21.95;8.02;;;11.00;65.50;;;;;;5040763;28;20040;-72
2020/12/29 03:41:34;;;;;;;25.50;5.95;;;11.10;65.30;;;;;;5056014;28;20025;-72
2020/12/29 03:44:00;;;;;;;14.68;5.15;;;11.00;65.10;;;;;;5040944;28;20025;-72
2020/12/29 03:46:27;;;;;;;27.77;6.53;;;11.10;65.50;;;;;;5045124;28;20040;-72
2020/12/29 03:48:53;;;;;;;20.35;5.25;;;11.00;65.50;;;;;;5042567;28;20081;-72
2020/12/29 03:51:19;;;;;;;15.75;5.00;;;11.10;65.60;;;;;;5038728;28;20025;-72
2020/12/29 03:53:46;;;;;;;24.48;6.15;;;11.10;65.70;;;;;;5038741;28;20025;-74
2020/12/29 03:56:12;;;;;;;17.90;4.97;;;11.20;65.50;;;;;;5040958;28;20065;-72
2020/12/29 03:58:38;;;;;;;22.05;4.97;;;11.10;65.70;;;;;;5042303;28;20093;-72
2020/12/29 04:01:05;;;;;;;21.25;6.32;;;11.20;66.10;;;;;;5028515;28;20405;-73
2020/12/29 04:03:31;;;;;;;17.88;6.72;;;11.20;65.70;;;;;;5041007;28;20025;-70
2020/12/29 04:05:57;;;;;;;20.30;5.28;;;11.20;65.90;;;;;;5043751;28;20066;-72
2020/12/29 04:08:24;;;;;;;23.77;4.90;;;11.10;65.50;;;;;;5044933;28;20033;-73
2020/12/29 04:10:50;;;;;;;14.82;4.95;;;11.20;66.00;;;;;;5035521;28;20057;-71
2020/12/29 04:13:17;;;;;;;22.20;6.78;;;11.10;65.90;;;;;;5048298;28;20032;-72
2020/12/29 04:15:43;;;;;;;14.10;4.90;;;11.10;66.00;;;;;;5037065;28;20336;-73
2020/12/29 04:18:10;;;;;;;17.48;6.03;;;11.00;66.40;;;;;;5044060;28;20028;-74
2020/12/29 04:20:36;;;;;;;18.65;5.18;;;11.00;66.30;;;;;;5051220;28;20067;-70
2020/12/29 04:23:02;;;;;;;13.55;4.50;;;10.90;66.30;;;;;;5035448;28;20029;-70
2020/12/29 04:25:29;;;;;;;17.17;3.70;;;10.90;66.10;;;;;;5035344;28;20025;-75
2020/12/29 04:27:55;;;;;;;21.45;4.95;;;10.70;67.00;;;;;;5051775;28;20343;-75
2020/12/29 04:30:22;;;;;;;10.35;4.28;;;10.60;67.00;;;;;;5042070;28;20037;-72
2020/12/29 04:32:48;;;;;;;18.42;4.93;;;10.60;67.50;;;;;;5035115;28;20444;-71
2020/12/29 04:35:15;;;;;;;11.63;4.72;;;10.50;66.80;;;;;;5037718;28;20033;-72
2020/12/29 04:37:42;;;;;;;15.40;4.60;;;10.50;66.30;;;;;;5053304;28;20025;-73
2020/12/29 04:40:08;;;;;;;19.63;5.57;;;10.60;66.30;;;;;;5032627;28;20470;-71
2020/12/29 04:42:35;;;;;;;22.55;7.20;;;10.60;66.40;;;;;;5039422;28;20029;-75
2020/12/29 04:45:02;;;;;;;20.20;6.40;;;10.50;66.20;;;;;;5033628;28;20091;-71
2020/12/29 04:47:29;;;;;;;22.95;4.88;;;10.40;66.40;;;;;;5040820;28;20025;-72
2020/12/29 04:49:57;;;;;;;21.92;4.90;;;10.40;66.50;;;;;;5044196;28;20112;-72
2020/12/29 04:52:24;;;;;;;15.32;5.07;;;10.40;66.30;;;;;;5040997;28;20030;-73
2020/12/29 04:54:56;;;;;;;13.60;5.15;;;10.30;66.40;;;;;;5040619;28;20045;-72
2020/12/29 04:57:23;;;;;;;16.20;5.25;;;10.30;66.40;;;;;;5046028;28;20021;-72
2020/12/29 04:59:50;;;;;;;30.48;8.35;;;10.20;66.90;;;;;;5039837;28;20022;-72
2020/12/29 05:02:17;;;;;;;19.63;7.75;;;10.30;66.80;;;;;;5040199;28;20090;-72
2020/12/29 05:04:43;;;;;;;23.88;5.13;;;10.20;66.60;;;;;;5037909;28;20079;-72
2020/12/29 05:07:10;;;;;;;19.98;4.72;;;10.00;66.70;;;;;;5032260;28;20037;-72
2020/12/29 05:09:36;;;;;;;17.55;4.97;;;10.00;67.10;;;;;;5031371;28;20462;-72
2020/12/29 05:12:03;;;;;;;23.42;5.47;;;10.00;67.40;;;;;;5036899;28;20032;-72
2020/12/29 05:14:29;;;;;;;22.48;5.35;;;9.90;67.70;;;;;;5037055;28;20359;-72
2020/12/29 05:16:56;;;;;;;25.15;6.15;;;9.80;67.40;;;;;;5032291;28;20030;-72
2020/12/29 05:19:23;;;;;;;17.73;6.28;;;9.90;67.60;;;;;;5028971;28;20087;-72
2020/12/29 05:21:51;;;;;;;22.92;5.38;;;9.90;67.60;;;;;;5031507;28;20433;-72
2020/12/29 05:24:22;;;;;;;23.23;7.28;;;9.90;67.50;;;;;;5039067;28;20025;-72
2020/12/29 05:26:52;;;;;;;21.67;6.10;;;9.90;67.80;;;;;;5047651;28;20029;-72
2020/12/29 05:29:22;;;;;;;28.58;6.07;;;9.80;68.00;;;;;;5037496;28;20474;-72
2020/12/29 05:31:49;;;;;;;27.05;6.00;;;9.80;68.00;;;;;;5071657;28;20029;-72
2020/12/29 05:34:20;;;;;;;31.20;5.65;;;9.80;68.80;;;;;;5053638;28;20029;-73
2020/12/29 05:36:47;;;;;;;28.70;9.13;;;9.80;68.40;;;;;;5051140;28;20037;-74
2020/12/29 05:39:14;;;;;;;21.17;6.72;;;9.80;68.70;;;;;;5029583;28;20078;-71
2020/12/29 05:41:50;;;;;;;22.08;6.18;;;9.80;68.80;;;;;;5039077;28;20021;-72
2020/12/29 05:44:33;;;;;;;14.55;5.72;;;9.80;68.70;;;;;;5038895;28;20048;-72
2020/12/29 05:47:02;;;;;;;22.65;5.97;;;9.90;68.90;;;;;;5043380;28;20026;-72
2020/12/29 05:49:32;;;;;;;24.05;5.85;;;9.80;68.60;;;;;;5041271;28;20028;-72
2020/12/29 05:51:59;;;;;;;28.42;5.22;;;9.80;68.80;;;;;;5035970;28;20033;-72
2020/12/29 05:54:27;;;;;;;33.10;5.55;;;9.80;69.10;;;;;;5032915;28;20423;-72
2020/12/29 05:56:54;;;;;;;17.17;6.05;;;9.80;68.80;;;;;;5036911;28;20021;-72
2020/12/29 05:59:21;;;;;;;21.33;6.15;;;9.80;68.90;;;;;;5038561;28;20045;-72
2020/12/29 06:01:52;;;;;;;22.77;5.45;;;9.70;69.00;;;;;;5038496;28;20792;-72
2020/12/29 06:04:20;;;;;;;28.33;5.25;;;9.70;69.20;;;;;;5033552;28;20053;-73
2020/12/29 06:06:50;;;;;;;19.52;7.47;;;9.70;69.60;;;;;;5039941;28;20097;-72
2020/12/29 06:09:18;;;;;;;23.95;6.15;;;9.80;69.20;;;;;;5037341;28;20033;-73
2020/12/29 06:11:47;;;;;;;25.45;6.40;;;9.80;69.30;;;;;;5037106;28;20055;-72
2020/12/29 06:14:16;;;;;;;31.98;6.55;;;9.80;69.60;;;;;;5042873;28;20029;-75
2020/12/29 06:16:46;;;;;;;28.15;5.28;;;9.70;69.50;;;;;;5036390;28;20033;-75
2020/12/29 06:19:23;;;;;;;34.17;7.13;;;9.70;69.60;;;;;;5022735;28;20029;-75
2020/12/29 06:22:12;;;;;;;24.95;5.72;;;9.70;69.90;;;;;;5034449;28;20017;-75
2020/12/29 06:24:45;;;;;;;19.17;5.43;;;9.60;69.80;;;;;;5035240;28;20398;-75
2020/12/29 06:27:13;;;;;;;20.95;5.45;;;9.60;69.90;;;;;;5031741;28;20030;-75
2020/12/29 06:29:44;;;;;;;16.45;5.22;;;9.60;70.10;;;;;;5029866;28;20033;-74
2020/12/29 06:32:21;;;;;;;22.10;4.90;;;9.60;70.20;;;;;;5023419;28;20018;-77
2020/12/29 06:34:48;;;;;;;23.98;5.40;;;9.60;70.10;;;;;;5024757;28;20036;-77
2020/12/29 06:37:26;;;;;;;25.33;6.88;;;9.60;70.30;;;;;;5024078;28;20029;-76
2020/12/29 06:39:57;;;;;;;15.60;4.65;;;9.60;70.40;;;;;;5036971;28;20028;-76
2020/12/29 06:42:24;;;;;;;39.03;6.90;;;9.60;70.50;;;;;;5032477;28;20029;-76
2020/12/29 06:44:58;;;;;;;20.85;4.88;;;9.60;70.50;;;;;;5041647;28;20085;-75
2020/12/29 06:47:28;;;;;;;21.00;5.65;;;9.60;70.70;;;;;;5032757;28;20526;-74
2020/12/29 06:49:55;;;;;;;23.85;4.80;;;9.50;70.80;;;;;;5034616;28;20469;-74
2020/12/29 06:52:24;;;;;;;28.77;8.15;;;9.50;70.50;;;;;;5035127;28;20025;-75
2020/12/29 06:54:57;;;;;;;14.75;4.78;;;9.60;70.60;;;;;;5030538;28;20352;-75
2020/12/29 06:57:34;;;;;;;42.88;9.93;;;9.50;70.50;;;;;;5039415;28;20092;-76
2020/12/29 07:00:13;;;;;;;20.58;5.18;;;9.50;70.60;;;;;;5044477;28;20074;-76
2020/12/29 07:02:40;;;;;;;30.15;5.38;;;9.50;71.20;;;;;;5041185;28;20060;-76
2020/12/29 07:05:24;;;;;;;22.33;5.65;;;9.40;70.80;;;;;;5036734;28;20018;-75
2020/12/29 07:08:02;;;;;;;24.42;4.97;;;9.50;70.70;;;;;;5028544;28;20041;-76
2020/12/29 07:10:37;;;;;;;24.13;6.50;;;9.40;70.60;;;;;;5023452;28;20092;-76
2020/12/29 07:13:09;;;;;;;27.23;6.03;;;9.50;70.60;;;;;;5034002;28;20036;-75
2020/12/29 07:15:55;;;;;;;31.30;5.95;;;9.50;70.60;;;;;;5038439;28;20032;-76
2020/12/29 07:18:27;;;;;;;23.83;4.50;;;9.50;71.00;;;;;;5036234;28;20466;-76
2020/12/29 07:20:58;;;;;;;24.15;4.82;;;9.60;71.60;;;;;;5038104;28;20363;-76
2020/12/29 07:23:30;;;;;;;21.60;4.43;;;9.70;71.70;;;;;;5022058;28;20057;-76
2020/12/29 07:26:01;;;;;;;24.23;4.50;;;9.70;71.60;;;;;;5033367;28;20053;-76
2020/12/29 07:28:30;;;;;;;22.85;6.93;;;9.80;71.30;;;;;;5035545;28;20030;-76
2020/12/29 07:30:56;;;;;;;24.20;5.40;;;9.80;71.50;;;;;;5030081;28;20049;-75
2020/12/29 07:33:25;;;;;;;19.63;6.40;;;9.70;71.30;;;;;;5037010;28;20417;-75
2020/12/29 07:35:52;;;;;;;25.48;6.20;;;9.70;71.50;;;;;;5040271;28;20036;-74
2020/12/29 07:38:24;;;;;;;18.70;5.65;;;9.60;71.40;;;;;;5037168;28;20350;-75
2020/12/29 07:40:51;;;;;;;21.60;5.72;;;9.60;71.30;;;;;;5031470;28;20104;-75
2020/12/29 07:43:18;;;;;;;22.42;5.43;;;9.60;71.30;;;;;;5043548;28;20021;-75
2020/12/29 07:45:47;;;;;;;23.23;5.47;;;9.60;71.50;;;;;;5040398;28;20024;-74
2020/12/29 07:48:14;;;;;;;22.70;5.22;;;9.50;71.50;;;;;;5041725;28;20465;-74
2020/12/29 07:50:41;;;;;;;21.65;7.00;;;9.50;71.50;;;;;;5053985;28;20029;-74
2020/12/29 07:53:12;;;;;;;18.33;5.63;;;9.50;71.70;;;;;;5033945;28;20026;-74
2020/12/29 07:55:43;;;;;;;24.50;6.35;;;9.50;71.60;;;;;;5048832;28;20021;-74
2020/12/29 07:58:10;;;;;;;24.65;7.68;;;9.40;71.60;;;;;;5031275;28;20124;-75
2020/12/29 08:00:38;;;;;;;18.42;5.68;;;9.50;71.70;;;;;;5032123;28;20467;-75
2020/12/29 08:03:05;;;;;;;26.45;7.03;;;9.40;71.80;;;;;;5041612;28;20031;-76
2020/12/29 08:05:35;;;;;;;28.80;6.70;;;9.50;72.00;;;;;;5042149;28;20052;-77
2020/12/29 08:08:05;;;;;;;20.38;5.57;;;9.40;71.70;;;;;;5035156;28;20020;-75
2020/12/29 08:10:36;;;;;;;23.65;5.18;;;9.50;72.20;;;;;;5042885;28;20459;-76
2020/12/29 08:13:10;;;;;;;27.30;5.85;;;9.50;72.10;;;;;;5035122;28;20423;-75
2020/12/29 08:15:41;;;;;;;28.60;5.68;;;9.50;72.00;;;;;;5026619;28;20407;-75
2020/12/29 08:18:17;;;;;;;26.50;5.28;;;9.50;72.20;;;;;;5036638;28;20036;-75
2020/12/29 08:20:48;;;;;;;23.52;4.72;;;9.60;72.70;;;;;;5032778;28;20034;-75
2020/12/29 08:23:16;;;;;;;22.23;5.13;;;9.50;73.00;;;;;;5027863;28;20032;-75
2020/12/29 08:26:02;;;;;;;26.55;5.40;;;9.40;72.30;;;;;;5034418;28;20378;-75
2020/12/29 08:28:30;;;;;;;17.60;5.97;;;9.30;72.20;;;;;;5029628;28;20026;-75
2020/12/29 08:31:06;;;;;;;18.17;6.13;;;9.30;72.90;;;;;;5033567;28;20025;-75
2020/12/29 08:33:34;;;;;;;16.83;5.35;;;9.30;72.50;;;;;;5033157;28;20021;-75
2020/12/29 08:36:02;;;;;;;14.27;4.80;;;9.30;72.40;;;;;;5031428;28;20068;-75
2020/12/29 08:38:29;;;;;;;14.77;5.13;;;9.20;72.30;;;;;;5033870;28;20113;-80
2020/12/29 08:41:05;;;;;;;20.75;5.30;;;9.10;72.80;;;;;;5032007;28;20045;-80
2020/12/29 08:43:40;;;;;;;17.55;5.82;;;9.20;72.10;;;;;;5022242;28;20029;-74
2020/12/29 08:46:08;;;;;;;26.30;8.32;;;9.20;71.90;;;;;;5034299;28;20044;-74
2020/12/29 08:48:34;;;;;;;23.65;7.10;;;9.20;71.80;;;;;;5034468;28;20037;-74
2020/12/29 08:51:19;;;;;;;10.40;4.88;;;9.20;71.90;;;;;;5033778;28;20057;-74
2020/12/29 08:53:46;;;;;;;24.70;4.82;;;9.20;72.00;;;;;;5032413;28;20469;-75
2020/12/29 08:56:25;;;;;;;22.55;6.55;;;9.20;72.00;;;;;;5034966;28;20086;-75
2020/12/29 08:58:53;;;;;;;26.15;6.63;;;9.20;71.90;;;;;;5042307;28;20028;-75
2020/12/29 09:01:36;;;;;;;18.63;6.57;;;9.10;71.80;;;;;;5034346;28;20049;-74
2020/12/29 09:04:22;;;;;;;21.33;5.43;;;9.00;71.80;;;;;;5041726;28;20153;-74
2020/12/29 09:07:02;;;;;;;17.38;4.93;;;9.00;71.90;;;;;;5027356;28;20029;-75
2020/12/29 09:09:30;;;;;;;24.52;4.72;;;8.90;71.80;;;;;;5025001;28;20048;-75
2020/12/29 09:12:08;;;;;;;19.83;5.05;;;8.90;71.80;;;;;;5030742;28;20488;-74
2020/12/29 09:14:35;;;;;;;29.23;5.07;;;8.90;71.80;;;;;;5035661;28;20033;-75
2020/12/29 09:17:05;;;;;;;12.32;4.20;;;9.00;72.30;;;;;;5032673;28;20502;-75
2020/12/29 09:19:33;;;;;;;23.60;5.32;;;9.10;72.10;;;;;;5029537;28;20026;-75
2020/12/29 09:22:11;;;;;;;16.23;6.65;;;9.10;72.30;;;;;;5033068;28;20030;-75
2020/12/29 09:24:50;;;;;;;18.60;4.70;;;9.20;72.10;;;;;;5033174;28;20751;-75
2020/12/29 09:27:33;;;;;;;22.23;4.75;;;9.30;72.20;;;;;;5033126;28;20068;-75
2020/12/29 09:30:14;;;;;;;18.38;5.18;;;9.20;71.60;;;;;;5034942;28;20036;-74
2020/12/29 09:32:41;;;;;;;19.53;4.33;;;9.10;71.80;;;;;;5037991;28;20025;-75
2020/12/29 09:35:25;;;;;;;22.10;6.47;;;9.10;72.10;;;;;;5029828;28;20030;-74
2020/12/29 09:37:56;;;;;;;6.93;4.38;;;9.00;72.10;;;;;;5028387;28;20026;-74
2020/12/29 09:40:24;;;;;;;17.02;4.60;;;9.00;72.40;;;;;;5040806;28;20089;-74
2020/12/29 09:42:51;;;;;;;14.95;4.70;;;9.00;72.40;;;;;;5043486;28;20028;-75
2020/12/29 09:45:19;;;;;;;14.10;5.30;;;9.10;72.60;;;;;;5040551;28;20024;-75
2020/12/29 09:47:45;;;;;;;21.65;4.75;;;9.20;72.20;;;;;;5047411;28;20095;-75
2020/12/29 09:50:12;;;;;;;19.20;4.85;;;9.20;72.00;;;;;;5033720;28;20455;-75
2020/12/29 09:52:38;;;;;;;24.60;4.82;;;9.10;72.20;;;;;;5050897;28;20370;-76
2020/12/29 09:55:06;;;;;;;11.07;4.13;;;9.00;72.50;;;;;;5029428;28;20104;-76
2020/12/29 09:57:33;;;;;;;23.55;5.47;;;8.90;72.60;;;;;;5020395;28;20057;-75
2020/12/29 09:59:59;;;;;;;17.58;5.30;;;8.80;72.70;;;;;;5034567;28;20100;-74
2020/12/29 10:02:26;;;;;;;28.30;5.28;;;8.90;72.80;;;;;;5049768;28;20438;-75
2020/12/29 10:04:52;;;;;;;19.98;4.38;;;8.90;72.50;;;;;;5039725;28;20014;-75
2020/12/29 10:07:19;;;;;;;16.33;5.80;;;8.90;72.30;;;;;;5033432;28;20029;-78
2020/12/29 10:09:45;;;;;;;13.73;3.88;;;8.80;72.20;;;;;;5034648;28;20037;-76
2020/12/29 10:12:12;;;;;;;10.63;3.22;;;8.70;72.70;;;;;;5032075;28;20037;-75
2020/12/29 10:14:39;;;;;;;16.80;4.63;;;8.50;73.00;;;;;;5030930;28;20025;-76
2020/12/29 10:17:05;;;;;;;12.35;3.85;;;8.50;72.80;;;;;;5033016;28;20419;-75
2020/12/29 10:19:32;;;;;;;16.80;3.95;;;8.50;72.60;;;;;;5041922;28;20018;-75
2020/12/29 10:21:58;;;;;;;8.98;3.65;;;8.50;72.60;;;;;;5047790;28;20412;-75
2020/12/29 10:24:25;;;;;;;13.30;4.63;;;8.50;72.30;;;;;;5043890;28;20379;-75
2020/12/29 10:26:52;;;;;;;20.80;4.53;;;8.40;72.30;;;;;;5035661;28;20032;-75
2020/12/29 10:29:20;;;;;;;20.25;3.95;;;8.40;72.30;;;;;;5033336;28;20029;-75
2020/12/29 10:31:47;;;;;;;14.02;4.53;;;8.50;72.40;;;;;;5037302;28;20033;-75
2020/12/29 10:34:14;;;;;;;16.98;4.30;;;8.50;72.20;;;;;;5033656;28;20025;-74
2020/12/29 10:36:42;;;;;;;17.20;4.78;;;8.50;72.60;;;;;;5039188;28;20018;-75
2020/12/29 10:39:10;;;;;;;19.23;5.30;;;8.60;72.30;;;;;;5036436;28;20447;-75
2020/12/29 10:41:37;;;;;;;25.98;5.10;;;8.60;72.20;;;;;;5049162;28;20024;-74
2020/12/29 10:44:05;;;;;;;19.30;5.90;;;8.50;72.20;;;;;;5036457;28;20025;-74
2020/12/29 10:46:32;;;;;;;20.65;5.47;;;8.50;73.00;;;;;;5035593;28;20029;-75
2020/12/29 10:48:59;;;;;;;19.52;5.20;;;8.50;72.80;;;;;;5037860;28;20040;-74
2020/12/29 10:51:26;;;;;;;21.70;4.50;;;8.60;73.00;;;;;;5037865;28;20366;-74
2020/12/29 10:53:54;;;;;;;20.73;5.38;;;8.60;72.80;;;;;;5034381;28;20061;-75
2020/12/29 10:56:21;;;;;;;23.58;6.30;;;8.70;72.90;;;;;;5038915;28;20038;-74
2020/12/29 10:58:47;;;;;;;26.35;4.72;;;8.80;72.60;;;;;;5041205;28;20049;-74
2020/12/29 11:01:21;;;;;;;26.52;5.55;;;8.80;72.60;;;;;;5037455;28;20021;-75
2020/12/29 11:03:48;;;;;;;22.38;4.38;;;8.80;72.60;;;;;;5042895;28;20135;-74
2020/12/29 11:06:20;;;;;;;23.40;5.63;;;8.90;72.90;;;;;;5042467;28;20033;-74
2020/12/29 11:08:47;;;;;;;28.73;6.68;;;8.90;72.90;;;;;;5036249;28;20021;-75
2020/12/29 11:11:15;;;;;;;17.65;5.18;;;8.90;72.90;;;;;;5043039;28;20451;-74
2020/12/29 11:13:42;;;;;;;21.98;4.25;;;8.90;73.00;;;;;;5035623;28;20457;-74
2020/12/29 11:16:20;;;;;;;14.45;4.45;;;8.90;73.40;;;;;;5042486;28;20120;-74
2020/12/29 11:18:48;;;;;;;23.80;5.78;;;8.80;72.80;;;;;;5040226;28;20032;-74
2020/12/29 11:21:19;;;;;;;26.35;5.22;;;8.80;73.00;;;;;;5038892;28;20060;-74
2020/12/29 11:23:46;;;;;;;22.98;4.80;;;8.80;72.50;;;;;;5038543;28;20053;-74
2020/12/29 11:26:16;;;;;;;15.50;3.80;;;8.70;72.50;;;;;;5041218;28;20360;-74
2020/12/29 11:28:43;;;;;;;17.08;5.00;;;8.70;72.30;;;;;;5038492;28;20029;-74
2020/12/29 11:31:21;;;;;;;15.30;4.45;;;8.60;72.80;;;;;;5038203;28;20034;-74
2020/12/29 11:33:48;;;;;;;20.17;4.80;;;8.50;72.90;;;;;;5036330;28;20026;-74
2020/12/29 11:36:19;;;;;;;16.45;4.32;;;8.60;73.10;;;;;;5038818;28;20030;-74
2020/12/29 11:38:46;;;;;;;11.20;3.53;;;8.60;72.70;;;;;;5036629;28;20029;-75
2020/12/29 11:41:12;;;;;;;17.25;3.83;;;8.50;72.60;;;;;;5037222;28;20029;-74
2020/12/29 11:43:39;;;;;;;17.08;5.43;;;8.40;72.70;;;;;;5038194;28;20056;-74
2020/12/29 11:46:07;;;;;;;16.27;4.10;;;8.40;72.60;;;;;;5026692;28;20033;-74
2020/12/29 11:48:33;;;;;;;12.45;3.97;;;8.40;73.00;;;;;;5034192;28;20036;-74
2020/12/29 11:51:00;;;;;;;15.30;3.47;;;8.30;72.80;;;;;;5036295;28;20033;-74
2020/12/29 11:53:26;;;;;;;15.98;4.95;;;8.20;72.90;;;;;;5053347;28;20033;-75
2020/12/29 11:55:53;;;;;;;11.70;3.60;;;8.20;72.80;;;;;;5046159;28;20072;-75
2020/12/29 11:58:19;;;;;;;17.02;5.20;;;8.30;72.80;;;;;;5041239;28;20109;-75
2020/12/29 12:00:46;;;;;;;13.70;3.80;;;8.20;72.50;;;;;;5035945;28;20025;-74
2020/12/29 12:03:12;;;;;;;18.65;4.13;;;8.30;72.60;;;;;;5038226;28;20503;-74
2020/12/29 12:05:39;;;;;;;15.13;5.32;;;8.30;72.90;;;;;;5040601;28;20032;-74
2020/12/29 12:08:05;;;;;;;18.02;5.68;;;8.40;73.10;;;;;;5041131;28;20114;-75
2020/12/29 12:10:32;;;;;;;17.65;4.03;;;8.30;73.00;;;;;;5045098;28;20036;-75
2020/12/29 12:12:58;;;;;;;17.02;5.85;;;8.30;73.10;;;;;;5050740;28;20029;-75
2020/12/29 12:15:24;;;;;;;18.48;4.20;;;8.40;73.40;;;;;;5047133;28;20409;-75
2020/12/29 12:17:51;;;;;;;16.55;4.60;;;8.50;73.00;;;;;;5040286;28;20390;-74
2020/12/29 12:20:17;;;;;;;21.08;5.45;;;8.40;73.30;;;;;;5047744;28;20049;-75
2020/12/29 12:22:44;;;;;;;14.15;4.28;;;8.40;73.30;;;;;;5043539;28;20033;-74
2020/12/29 12:25:11;;;;;;;20.60;4.55;;;8.40;73.50;;;;;;5039896;28;20022;-74
2020/12/29 12:27:38;;;;;;;9.68;4.38;;;8.40;73.40;;;;;;5037039;28;20040;-74
2020/12/29 12:30:04;;;;;;;11.25;4.45;;;8.40;73.50;;;;;;5037518;28;20041;-74
2020/12/29 12:32:30;;;;;;;17.63;4.65;;;8.50;73.20;;;;;;5040472;28;20040;-74
2020/12/29 12:34:57;;;;;;;15.05;4.65;;;8.50;73.20;;;;;;5037870;28;20456;-74
2020/12/29 12:37:23;;;;;;;15.20;4.50;;;8.50;72.80;;;;;;5039317;28;20031;-74
2020/12/29 12:39:50;;;;;;;15.75;4.28;;;8.60;73.10;;;;;;5039992;28;20043;-74
2020/12/29 12:42:20;;;;;;;19.75;5.05;;;8.50;72.80;;;;;;5043597;28;20021;-75
2020/12/29 12:44:46;;;;;;;22.95;6.25;;;8.30;73.80;;;;;;5039160;28;20112;-74
2020/12/29 12:47:13;;;;;;;23.88;7.35;;;8.40;73.80;;;;;;5041610;28;20367;-74
2020/12/29 12:49:40;;;;;;;18.98;6.20;;;8.30;74.10;;;;;;5041244;28;20467;-75
2020/12/29 12:52:06;;;;;;;19.73;5.82;;;8.20;74.30;;;;;;5040509;28;20032;-75